Time;durP1;ratioP1;P1;durP2;ratioP2;P2;SDS_P1;SDS_P2;PMS_P1;PMS_P2;Temp;Humidity;BMP_temperature;BMP_pressure;BME280_temperature;BME280_humidity;BME280_pressure;Samples;Min_cycle;Max_cycle;Signal;HPM_P1;HPM_P2
2021/12/08 00:00:38;;;;;;;7.20;2.80;;;;;;;-0.59;100.00;94864.59;5028096;28;20095;-77
2021/12/08 00:03:06;;;;;;;3.33;1.38;;;;;;;-0.55;100.00;94845.31;5011380;28;20578;-76
2021/12/08 00:05:32;;;;;;;7.00;2.23;;;;;;;-0.58;100.00;94835.22;5042145;28;20044;-76
2021/12/08 00:07:59;;;;;;;6.20;3.30;;;;;;;-0.56;100.00;94842.88;5031781;28;20467;-76
2021/12/08 00:13:07;;;;;;;4.13;1.73;;;;;;;-0.43;99.89;94848.66;5040279;28;20459;-75
2021/12/08 00:15:35;;;;;;;3.40;1.63;;;;;;;-0.49;100.00;94836.25;5038987;28;20476;-76
2021/12/08 00:18:03;;;;;;;6.97;1.93;;;;;;;-0.53;100.00;94843.44;5028299;28;21279;-76
2021/12/08 00:20:32;;;;;;;5.10;2.00;;;;;;;-0.53;100.00;94829.72;5024180;28;20468;-76
2021/12/08 00:23:02;;;;;;;5.90;2.20;;;;;;;-0.60;100.00;94836.31;5041541;28;20471;-76
2021/12/08 00:25:28;;;;;;;4.40;1.83;;;;;;;-0.61;100.00;94820.00;5031746;28;20646;-76
2021/12/08 00:27:54;;;;;;;4.97;2.00;;;;;;;-0.62;100.00;94817.53;5037789;28;21009;-76
2021/12/08 00:30:20;;;;;;;5.30;1.70;;;;;;;-0.61;100.00;94819.19;5029603;28;20474;-76
2021/12/08 00:32:47;;;;;;;4.57;1.63;;;;;;;-0.57;100.00;94820.56;5020324;28;20029;-76
2021/12/08 00:35:13;;;;;;;4.70;1.77;;;;;;;-0.58;100.00;94813.75;5036526;28;20832;-76
2021/12/08 00:37:40;;;;;;;7.00;2.03;;;;;;;-0.59;100.00;94806.97;5019875;28;20547;-76
2021/12/08 00:40:10;;;;;;;5.23;1.73;;;;;;;-0.54;100.00;94812.56;5056161;28;20482;-75
2021/12/08 00:42:36;;;;;;;5.40;1.80;;;;;;;-0.52;100.00;94808.09;5037877;28;20934;-76
2021/12/08 00:45:05;;;;;;;3.83;1.37;;;;;;;-0.50;100.00;94793.31;5032344;28;20546;-76
2021/12/08 00:47:30;;;;;;;6.73;2.00;;;;;;;-0.55;100.00;94787.69;5026883;28;20091;-76
2021/12/08 00:49:56;;;;;;;4.93;1.40;;;;;;;-0.58;100.00;94787.94;5017755;28;20519;-76
2021/12/08 00:52:28;;;;;;;4.23;1.80;;;;;;;-0.60;100.00;94805.34;5038684;28;20107;-76
2021/12/08 00:54:54;;;;;;;3.83;1.80;;;;;;;-0.59;100.00;94806.97;5022952;28;20057;-76
2021/12/08 00:57:19;;;;;;;6.53;1.77;;;;;;;-0.61;100.00;94789.00;5035611;28;20528;-76
2021/12/08 00:59:45;;;;;;;4.17;1.53;;;;;;;-0.64;100.00;94789.25;5017783;28;20033;-76
2021/12/08 01:02:11;;;;;;;5.17;2.13;;;;;;;-0.58;100.00;94796.50;5035216;28;20478;-76
2021/12/08 01:04:36;;;;;;;4.97;1.80;;;;;;;-0.55;100.00;94792.84;5023162;28;20595;-76
2021/12/08 01:07:03;;;;;;;3.53;1.70;;;;;;;-0.46;100.00;94794.69;5035565;28;20416;-76
2021/12/08 01:09:29;;;;;;;4.80;1.80;;;;;;;-0.41;99.97;94805.44;5028769;28;20514;-76
2021/12/08 01:11:57;;;;;;;5.77;2.27;;;;;;;-0.37;98.41;94821.50;5038858;28;20555;-75
2021/12/08 01:14:23;;;;;;;9.20;2.23;;;;;;;-0.30;96.46;94822.66;5031733;28;20495;-75
2021/12/08 01:16:51;;;;;;;7.60;1.97;;;;;;;-0.22;93.74;94820.22;5022704;28;20463;-77
2021/12/08 01:19:18;;;;;;;3.27;1.30;;;;;;;-0.16;92.51;94808.56;5015946;28;20466;-76
2021/12/08 01:21:44;;;;;;;4.27;1.70;;;;;;;-0.20;93.97;94796.84;5036415;28;20479;-76
2021/12/08 01:24:10;;;;;;;2.60;1.30;;;;;;;-0.26;95.69;94804.16;5028407;28;20549;-76
2021/12/08 01:26:36;;;;;;;2.93;1.13;;;;;;;-0.25;96.30;94810.97;5029817;28;20030;-76
2021/12/08 01:29:03;;;;;;;4.60;1.37;;;;;;;-0.26;98.57;94795.59;5028944;28;20044;-76
2021/12/08 01:31:29;;;;;;;4.70;1.67;;;;;;;-0.28;98.79;94806.03;5035575;28;20037;-76
2021/12/08 01:33:54;;;;;;;3.83;1.23;;;;;;;-0.27;98.44;94812.88;5025834;28;20451;-76
2021/12/08 01:36:20;;;;;;;2.87;1.93;;;;;;;-0.29;98.26;94803.59;5010165;28;20025;-76
2021/12/08 01:38:46;;;;;;;3.93;1.50;;;;;;;-0.15;93.31;94799.88;5040040;28;20043;-76
2021/12/08 01:41:13;;;;;;;4.40;1.30;;;;;;;-0.20;97.87;94781.34;5034934;28;20116;-76
2021/12/08 01:43:43;;;;;;;5.90;1.43;;;;;;;-0.26;99.07;94782.69;5021217;28;20056;-76
2021/12/08 01:46:13;;;;;;;5.37;1.70;;;;;;;-0.25;97.32;94785.13;5033913;28;20551;-76
2021/12/08 01:48:42;;;;;;;2.90;1.10;;;;;;;-0.27;97.64;94774.13;5015542;28;20515;-76
2021/12/08 01:51:12;;;;;;;2.73;1.20;;;;;;;-0.24;96.95;94779.00;5014999;28;20853;-76
2021/12/08 01:53:41;;;;;;;5.23;1.57;;;;;;;-0.38;97.53;94781.13;5035547;28;20467;-76
2021/12/08 01:56:09;;;;;;;8.37;2.07;;;;;;;-0.45;99.51;94775.66;5037649;28;20542;-76
2021/12/08 01:58:35;;;;;;;3.77;1.73;;;;;;;-0.52;100.00;94777.94;5019639;28;20554;-76
2021/12/08 02:01:05;;;;;;;6.33;1.70;;;;;;;-0.58;100.00;94778.44;5011542;28;20680;-76
2021/12/08 02:03:33;;;;;;;5.23;1.63;;;;;;;-0.55;100.00;94770.44;5034511;28;20045;-76
2021/12/08 02:05:59;;;;;;;4.73;1.90;;;;;;;-0.60;100.00;94784.69;5015677;28;21096;-76
2021/12/08 02:08:26;;;;;;;8.57;1.77;;;;;;;-0.54;100.00;94785.00;5035155;28;20491;-76
2021/12/08 02:10:52;;;;;;;4.97;1.40;;;;;;;-0.55;100.00;94798.03;5005822;28;20440;-76
2021/12/08 02:13:18;;;;;;;3.47;1.50;;;;;;;-0.57;100.00;94787.00;5020065;28;20555;-76
2021/12/08 02:15:44;;;;;;;5.60;2.20;;;;;;;-0.65;100.00;94782.47;5037430;28;20476;-76
2021/12/08 02:18:14;;;;;;;9.77;2.17;;;;;;;-0.61;100.00;94773.50;5027148;28;20472;-76
2021/12/08 02:20:42;;;;;;;7.87;1.90;;;;;;;-0.60;100.00;94775.16;5037249;28;20463;-77
2021/12/08 02:23:08;;;;;;;5.33;1.60;;;;;;;-0.65;100.00;94756.66;5035725;28;20487;-76
2021/12/08 02:25:33;;;;;;;4.37;1.67;;;;;;;-0.70;100.00;94758.81;5033218;28;20496;-76
2021/12/08 02:28:01;;;;;;;5.27;1.97;;;;;;;-0.84;100.00;94767.69;5032669;28;20524;-76
2021/12/08 02:30:35;;;;;;;5.53;1.73;;;;;;;-0.86;100.00;94767.00;5022241;28;20037;-76
2021/12/08 02:47:10;;;;;;;4.77;2.13;;;;;;;-1.03;100.00;94776.09;5027994;28;20467;-77
2021/12/08 02:49:36;;;;;;;5.53;2.30;;;;;;;-0.95;100.00;94760.00;5031281;28;21107;-76
2021/12/08 02:52:03;;;;;;;5.53;2.20;;;;;;;-1.08;100.00;94759.34;5011556;28;20437;-76
2021/12/08 02:54:34;;;;;;;4.90;2.07;;;;;;;-1.07;100.00;94756.66;5012696;28;20575;-76
2021/12/08 02:57:00;;;;;;;9.37;2.83;;;;;;;-1.20;100.00;94754.25;5025982;28;21015;-76
2021/12/08 02:59:26;;;;;;;8.87;2.80;;;;;;;-1.17;100.00;94760.09;5034182;28;20464;-76
2021/12/08 03:01:52;;;;;;;5.37;2.57;;;;;;;-1.16;100.00;94761.75;5030850;28;20030;-77
2021/12/08 03:04:17;;;;;;;5.10;2.50;;;;;;;-1.22;100.00;94758.72;5025246;28;20030;-77
2021/12/08 03:06:43;;;;;;;4.57;2.63;;;;;;;-1.24;100.00;94754.59;5038757;28;20037;-76
2021/12/08 03:09:09;;;;;;;8.30;3.07;;;;;;;-1.26;100.00;94757.31;5033874;28;20041;-77
2021/12/08 03:11:36;;;;;;;7.23;3.13;;;;;;;-1.21;100.00;94754.38;5015608;28;20029;-76
2021/12/08 03:14:12;;;;;;;6.87;3.30;;;;;;;-1.25;100.00;94758.94;5034637;28;20029;-77
2021/12/08 03:16:42;;;;;;;5.47;2.63;;;;;;;-1.25;100.00;94758.13;5032896;28;20984;-77
2021/12/08 03:19:08;;;;;;;6.10;2.50;;;;;;;-1.20;100.00;94756.03;5030703;28;20447;-77
2021/12/08 03:21:34;;;;;;;6.03;2.80;;;;;;;-1.27;100.00;94752.31;5023623;28;20432;-77
2021/12/08 03:26:54;;;;;;;9.63;3.23;;;;;;;-1.29;100.00;94757.56;5021059;28;20033;-76
2021/12/08 03:32:04;;;;;;;8.87;3.30;;;;;;;-1.27;100.00;94758.28;5030457;28;20801;-77
2021/12/08 03:34:31;;;;;;;6.27;2.80;;;;;;;-1.28;100.00;94748.88;5013675;28;20475;-76
2021/12/08 03:36:57;;;;;;;6.13;2.60;;;;;;;-1.26;100.00;94754.75;5033666;28;20558;-76
2021/12/08 03:39:22;;;;;;;6.63;2.53;;;;;;;-1.25;100.00;94752.97;5040086;28;20812;-76
2021/12/08 03:41:49;;;;;;;5.83;2.87;;;;;;;-1.16;100.00;94747.09;5035645;28;20467;-76
2021/12/08 03:44:15;;;;;;;7.27;3.80;;;;;;;-1.15;100.00;94746.13;5037796;28;20033;-75
2021/12/08 03:46:42;;;;;;;5.90;2.73;;;;;;;-1.10;100.00;94748.34;5036816;28;20491;-76
2021/12/08 03:49:13;;;;;;;7.67;2.97;;;;;;;-1.05;100.00;94748.78;5028188;28;20503;-76
2021/12/08 03:51:40;;;;;;;6.53;3.10;;;;;;;-1.04;100.00;94737.50;5018784;28;20475;-76
2021/12/08 03:54:07;;;;;;;6.77;3.23;;;;;;;-1.08;100.00;94741.28;5037869;28;20944;-76
2021/12/08 03:56:33;;;;;;;6.63;2.97;;;;;;;-1.04;100.00;94746.09;5039311;28;20472;-76
2021/12/08 03:58:59;;;;;;;9.60;2.70;;;;;;;-0.93;100.00;94744.41;5027844;28;21058;-76
2021/12/08 04:01:24;;;;;;;8.63;3.07;;;;;;;-0.90;100.00;94744.97;5034319;28;20037;-76
2021/12/08 04:03:51;;;;;;;7.10;3.00;;;;;;;-0.86;100.00;94743.75;5051371;28;20091;-76
2021/12/08 04:06:32;;;;;;;6.07;2.93;;;;;;;-0.87;100.00;94747.28;5044023;28;20348;-77
2021/12/08 04:08:58;;;;;;;6.03;2.80;;;;;;;-0.85;100.00;94739.41;5029458;28;20522;-76
2021/12/08 04:11:25;;;;;;;6.57;2.90;;;;;;;-0.89;100.00;94738.84;5047110;28;20450;-77
2021/12/08 04:13:58;;;;;;;7.93;5.43;;;;;;;-0.93;100.00;94742.63;5033308;28;20455;-76
2021/12/08 04:16:29;;;;;;;10.15;4.60;;;;;;;-0.86;100.00;94738.59;5034397;28;21200;-76
2021/12/08 04:18:57;;;;;;;9.53;6.10;;;;;;;-0.85;100.00;94744.56;5030636;28;20391;-76
2021/12/08 04:21:24;;;;;;;29.70;13.73;;;;;;;-0.79;100.00;94744.88;5033096;28;20436;-77
2021/12/08 04:23:50;;;;;;;65.77;27.23;;;;;;;-0.76;100.00;94739.47;5045774;28;20496;-77
2021/12/08 04:26:24;;;;;;;42.17;16.30;;;;;;;-0.71;100.00;94731.34;5034546;28;20563;-76
2021/12/08 04:28:52;;;;;;;35.47;16.20;;;;;;;-0.69;100.00;94731.22;5019870;28;20451;-76
2021/12/08 04:31:24;;;;;;;30.07;14.10;;;;;;;-0.60;100.00;94733.06;5035087;28;20535;-76
2021/12/08 04:33:54;;;;;;;8.40;4.47;;;;;;;-0.51;100.00;94740.81;5014217;28;21007;-76
2021/12/08 04:36:23;;;;;;;10.20;5.50;;;;;;;-0.48;100.00;94729.41;5037464;28;21086;-77
2021/12/08 04:38:53;;;;;;;7.43;4.03;;;;;;;-0.42;100.00;94728.91;5028486;28;20491;-76
2021/12/08 04:41:29;;;;;;;7.07;4.40;;;;;;;-0.30;100.00;94734.81;5013316;28;20542;-76
2021/12/08 04:44:07;;;;;;;6.60;3.80;;;;;;;-0.27;100.00;94737.97;5031668;28;20546;-77
2021/12/08 05:08:40;;;;;;;7.77;4.43;;;;;;;-0.12;100.00;94714.34;5038311;28;20472;-77
2021/12/08 05:11:09;;;;;;;9.57;4.80;;;;;;;-0.06;100.00;94714.63;5027806;28;20479;-76
2021/12/08 05:13:35;;;;;;;7.53;4.73;;;;;;;0.02;100.00;94711.38;5011943;28;20444;-77
2021/12/08 05:16:00;;;;;;;9.07;4.50;;;;;;;-0.05;100.00;94718.03;5034790;28;20555;-79
2021/12/08 05:18:33;;;;;;;10.67;4.43;;;;;;;-0.05;100.00;94716.25;5021588;28;20041;-77
2021/12/08 05:21:03;;;;;;;6.77;4.10;;;;;;;0.03;100.00;94713.00;5031901;28;20037;-77
2021/12/08 05:23:37;;;;;;;7.30;4.10;;;;;;;0.08;100.00;94718.59;5033656;28;20519;-77
2021/12/08 05:26:08;;;;;;;8.77;4.33;;;;;;;0.09;100.00;94712.47;5037410;28;20460;-77
2021/12/08 05:28:34;;;;;;;10.90;6.50;;;;;;;-0.05;100.00;94716.25;5028016;28;20460;-78
2021/12/08 05:31:11;;;;;;;9.97;5.20;;;;;;;-0.15;100.00;94723.16;5026070;28;20459;-76
2021/12/08 05:33:39;;;;;;;9.67;5.33;;;;;;;-0.11;100.00;94721.13;5011532;28;20483;-77
2021/12/08 05:36:06;;;;;;;8.40;5.07;;;;;;;-0.13;100.00;94725.63;5040508;28;20453;-77
2021/12/08 05:38:32;;;;;;;11.23;5.93;;;;;;;-0.12;100.00;94732.44;5023730;28;20530;-76
2021/12/08 05:41:14;;;;;;;9.83;5.57;;;;;;;-0.16;100.00;94728.47;5016012;28;21173;-77
2021/12/08 05:43:41;;;;;;;10.83;6.43;;;;;;;-0.16;100.00;94731.88;5037389;28;20034;-77
2021/12/08 05:46:08;;;;;;;10.63;7.27;;;;;;;-0.18;100.00;94726.00;5032463;28;20487;-77
2021/12/08 05:48:35;;;;;;;13.73;7.20;;;;;;;-0.11;100.00;94731.47;5021836;28;20473;-77
2021/12/08 05:51:13;;;;;;;10.83;7.07;;;;;;;-0.16;100.00;94713.78;5038333;28;20479;-77
2021/12/08 05:53:43;;;;;;;11.90;7.10;;;;;;;-0.21;100.00;94717.69;5014848;28;20440;-76
2021/12/08 05:56:12;;;;;;;10.73;6.30;;;;;;;-0.20;100.00;94716.75;5031599;28;20499;-76
2021/12/08 05:58:40;;;;;;;11.73;7.13;;;;;;;-0.20;100.00;94712.41;5003339;28;20535;-77
2021/12/08 06:01:12;;;;;;;19.47;8.40;;;;;;;-0.18;100.00;94712.28;5025671;28;20460;-77
2021/12/08 06:03:41;;;;;;;16.33;9.73;;;;;;;-0.19;100.00;94720.97;5023264;28;20476;-77
2021/12/08 06:06:07;;;;;;;14.80;7.50;;;;;;;-0.24;100.00;94723.94;5011915;28;20473;-76
2021/12/08 06:08:33;;;;;;;13.13;7.53;;;;;;;-0.23;100.00;94735.94;5034693;28;20821;-76
2021/12/08 06:11:02;;;;;;;14.67;8.00;;;;;;;-0.20;100.00;94740.00;5030554;28;20582;-77
2021/12/08 06:13:29;;;;;;;12.20;7.30;;;;;;;-0.21;100.00;94739.19;5017985;28;20247;-76
2021/12/08 06:15:55;;;;;;;13.53;8.10;;;;;;;-0.17;100.00;94747.50;5042957;28;20577;-77
2021/12/08 06:18:24;;;;;;;13.73;8.23;;;;;;;-0.19;100.00;94739.88;5024480;28;21013;-76
2021/12/08 06:20:54;;;;;;;13.80;8.27;;;;;;;-0.21;100.00;94738.38;5050562;28;20466;-77
2021/12/08 06:23:20;;;;;;;14.57;8.63;;;;;;;-0.26;100.00;94731.84;5039787;28;20518;-77
2021/12/08 06:25:46;;;;;;;14.07;8.60;;;;;;;-0.24;100.00;94724.75;5044007;28;20464;-77
2021/12/08 06:28:12;;;;;;;17.83;10.23;;;;;;;-0.28;100.00;94723.38;5044989;28;20097;-77
2021/12/08 06:30:40;;;;;;;17.53;9.17;;;;;;;-0.30;100.00;94725.31;5018958;28;20979;-77
2021/12/08 06:33:06;;;;;;;15.00;9.60;;;;;;;-0.33;100.00;94724.75;5026462;28;20029;-76
2021/12/08 06:35:43;;;;;;;15.43;9.73;;;;;;;-0.35;100.00;94717.09;5048933;28;20475;-77
2021/12/08 06:38:10;;;;;;;13.27;9.23;;;;;;;-0.35;100.00;94711.94;5041625;28;20463;-77
2021/12/08 06:40:59;;;;;;;15.37;9.47;;;;;;;-0.30;100.00;94704.63;5033282;28;20506;-76
2021/12/08 06:43:29;;;;;;;17.10;10.93;;;;;;;-0.29;100.00;94706.25;5052127;28;20480;-77
2021/12/08 06:45:57;;;;;;;18.03;10.83;;;;;;;-0.34;100.00;94711.00;5020607;28;20488;-77
2021/12/08 06:48:29;;;;;;;18.13;10.97;;;;;;;-0.37;100.00;94713.00;5029956;28;20460;-77
2021/12/08 06:50:57;;;;;;;16.63;10.50;;;;;;;-0.35;100.00;94727.44;5017354;28;21104;-77
2021/12/08 06:53:24;;;;;;;22.17;11.87;;;;;;;-0.40;100.00;94739.94;5008932;28;20468;-77
2021/12/08 06:55:56;;;;;;;16.77;11.07;;;;;;;-0.36;100.00;94733.56;5027710;28;20455;-77
2021/12/08 06:58:25;;;;;;;19.17;12.50;;;;;;;-0.42;100.00;94725.50;5029984;28;20864;-77
2021/12/08 07:01:20;;;;;;;23.33;12.50;;;;;;;-0.41;100.00;94730.53;5026636;28;20475;-79
2021/12/08 07:06:47;;;;;;;23.17;13.20;;;;;;;-0.36;100.00;94719.84;5036747;28;20452;-77
2021/12/08 07:09:28;;;;;;;18.30;11.90;;;;;;;-0.38;100.00;94716.56;5020296;28;20475;-78
2021/12/08 07:11:57;;;;;;;18.63;12.23;;;;;;;-0.38;100.00;94722.53;5027491;28;20471;-79
2021/12/08 07:14:25;;;;;;;16.00;11.60;;;;;;;-0.39;100.00;94718.31;5026591;28;20570;-77
2021/12/08 07:16:55;;;;;;;20.50;12.40;;;;;;;-0.38;100.00;94726.88;5036176;28;20579;-76
2021/12/08 07:20:02;;;;;;;19.57;12.73;;;;;;;-0.34;100.00;94736.81;5031763;28;20555;-77
2021/12/08 07:22:27;;;;;;;16.73;12.47;;;;;;;-0.35;100.00;94737.78;5024943;28;20531;-77
2021/12/08 07:24:55;;;;;;;23.00;12.50;;;;;;;-0.33;100.00;94741.06;5032092;28;20464;-77
2021/12/08 07:27:28;;;;;;;20.13;12.17;;;;;;;-0.31;100.00;94743.50;5033755;28;20566;-77
2021/12/08 07:29:59;;;;;;;18.83;12.38;;;;;;;-0.33;100.00;94746.22;5030866;28;21235;-77
2021/12/08 07:32:29;;;;;;;18.20;12.83;;;;;;;-0.28;100.00;94753.56;5015131;28;20049;-77
2021/12/08 07:34:59;;;;;;;19.43;13.07;;;;;;;-0.32;100.00;94760.75;5031063;28;20551;-77
2021/12/08 07:37:29;;;;;;;20.17;12.80;;;;;;;-0.34;100.00;94759.25;5038995;28;20468;-77
2021/12/08 07:40:27;;;;;;;18.17;11.63;;;;;;;-0.27;100.00;94755.19;5003772;28;20549;-77
2021/12/08 07:43:27;;;;;;;18.07;11.73;;;;;;;-0.30;100.00;94756.28;5052550;28;20487;-77
2021/12/08 07:46:02;;;;;;;18.30;12.47;;;;;;;-0.29;100.00;94759.69;5038533;28;20570;-77
2021/12/08 07:48:44;;;;;;;20.47;12.87;;;;;;;-0.32;100.00;94763.34;5044957;28;20463;-77
2021/12/08 07:51:36;;;;;;;18.10;12.90;;;;;;;-0.32;100.00;94763.34;5020649;28;20485;-77
2021/12/08 07:54:05;;;;;;;21.87;14.27;;;;;;;-0.32;100.00;94758.19;5027451;28;20526;-77
2021/12/08 07:56:33;;;;;;;23.47;15.63;;;;;;;-0.34;100.00;94751.50;5025752;28;20495;-77
2021/12/08 07:59:03;;;;;;;21.60;14.97;;;;;;;-0.44;100.00;94743.69;5026743;28;20535;-76
2021/12/08 08:01:36;;;;;;;20.97;14.77;;;;;;;-0.43;100.00;94741.97;5027521;28;20498;-77
2021/12/08 08:04:04;;;;;;;18.40;13.60;;;;;;;-0.33;100.00;94745.41;5026397;28;20511;-77
2021/12/08 08:06:37;;;;;;;22.40;14.80;;;;;;;-0.38;100.00;94738.03;5012500;28;20583;-77
2021/12/08 08:09:07;;;;;;;36.70;20.03;;;;;;;-0.38;100.00;94737.22;5027315;28;20467;-77
2021/12/08 08:11:41;;;;;;;52.47;23.97;;;;;;;-0.34;100.00;94744.56;5027998;28;20460;-77
2021/12/08 08:14:07;;;;;;;32.97;17.20;;;;;;;-0.35;100.00;94742.94;5030835;28;20539;-77
2021/12/08 08:16:36;;;;;;;21.37;14.23;;;;;;;-0.36;100.00;94746.47;5017983;28;20916;-77
2021/12/08 08:19:10;;;;;;;20.33;14.53;;;;;;;-0.35;100.00;94748.09;5024214;28;21296;-77
2021/12/08 08:21:50;;;;;;;23.97;16.00;;;;;;;-0.32;100.00;94741.88;5027316;28;20571;-77
2021/12/08 08:24:17;;;;;;;21.67;14.73;;;;;;;-0.30;100.00;94747.72;5028739;28;20472;-77
2021/12/08 08:26:45;;;;;;;23.80;16.43;;;;;;;-0.25;100.00;94745.56;5041437;28;20463;-77
2021/12/08 08:29:11;;;;;;;27.00;16.83;;;;;;;-0.23;100.00;94735.94;5039019;28;20467;-77
2021/12/08 08:32:02;;;;;;;23.87;17.57;;;;;;;-0.24;100.00;94732.50;5004251;28;20496;-77
2021/12/08 08:34:33;;;;;;;26.27;17.23;;;;;;;-0.17;100.00;94744.91;5003168;28;20500;-77
2021/12/08 08:36:59;;;;;;;32.37;20.77;;;;;;;-0.13;100.00;94741.13;5024177;28;20475;-77
2021/12/08 08:39:31;;;;;;;31.57;20.43;;;;;;;-0.16;100.00;94742.22;5016521;28;20455;-77
2021/12/08 08:42:01;;;;;;;34.03;22.70;;;;;;;-0.18;100.00;94736.34;5019835;28;20050;-77
2021/12/08 08:44:39;;;;;;;34.93;22.70;;;;;;;-0.19;100.00;94724.38;5040723;28;20547;-77
2021/12/08 08:47:15;;;;;;;43.43;24.90;;;;;;;-0.17;100.00;94719.88;5023687;28;20562;-77
2021/12/08 08:49:42;;;;;;;41.77;23.37;;;;;;;-0.22;100.00;94721.25;5033939;28;20467;-77
2021/12/08 08:52:19;;;;;;;34.67;24.23;;;;;;;-0.17;100.00;94713.91;5003569;28;21085;-77
2021/12/08 08:54:49;;;;;;;33.60;21.67;;;;;;;-0.17;100.00;94709.53;5014087;28;20500;-77
2021/12/08 08:57:22;;;;;;;30.50;19.80;;;;;;;-0.13;100.00;94699.78;5020254;28;21216;-77
2021/12/08 08:59:52;;;;;;;28.98;19.60;;;;;;;-0.12;100.00;94694.47;5018524;28;21015;-77
2021/12/08 09:02:24;;;;;;;27.57;17.33;;;;;;;-0.11;100.00;94684.97;5007640;28;20059;-80
2021/12/08 09:04:57;;;;;;;26.80;17.97;;;;;;;-0.17;100.00;94677.72;5010445;28;20456;-77
2021/12/08 09:07:29;;;;;;;22.92;16.02;;;;;;;-0.16;100.00;94674.22;5026662;28;21099;-77
2021/12/08 09:09:58;;;;;;;23.60;16.23;;;;;;;-0.14;100.00;94667.13;5031088;28;20844;-77
2021/12/08 09:12:42;;;;;;;25.17;16.03;;;;;;;-0.13;100.00;94641.19;5033281;28;20456;-76
2021/12/08 09:15:21;;;;;;;24.47;16.63;;;;;;;-0.14;100.00;94656.81;5023996;28;20547;-77
2021/12/08 09:17:56;;;;;;;25.03;16.70;;;;;;;-0.07;100.00;94658.75;5009326;28;20460;-76
2021/12/08 09:20:58;;;;;;;19.93;14.20;;;;;;;-0.03;100.00;94659.28;5017745;28;20504;-77
2021/12/08 09:23:32;;;;;;;20.43;15.07;;;;;;;0.00;100.00;94674.53;5027237;28;20464;-77
2021/12/08 09:25:59;;;;;;;;;;;;;;;-0.03;100.00;94691.13;5029948;28;20953;-77
2021/12/08 09:28:30;;;;;;;21.83;13.53;;;;;;;0.02;100.00;94721.72;5024706;28;20291;-80
2021/12/08 09:31:11;;;;;;;21.20;15.13;;;;;;;0.02;100.00;94729.47;5025090;28;20455;-77
2021/12/08 09:33:45;;;;;;;21.10;14.97;;;;;;;0.08;100.00;94733.31;5039453;28;20448;-76
2021/12/08 09:36:18;;;;;;;23.53;17.23;;;;;;;0.13;100.00;94725.94;5019407;28;20478;-77
2021/12/08 09:38:52;;;;;;;28.02;18.33;;;;;;;0.14;100.00;94723.25;5009814;28;20472;-76
2021/12/08 09:41:36;;;;;;;29.73;17.75;;;;;;;0.16;100.00;94711.00;5019779;28;20037;-77
2021/12/08 09:44:10;;;;;;;27.13;16.87;;;;;;;0.14;100.00;94699.19;5037498;28;20029;-76
2021/12/08 09:46:45;;;;;;;23.37;16.70;;;;;;;0.12;100.00;94704.47;5053410;28;20447;-76
2021/12/08 09:49:13;;;;;;;26.17;15.50;;;;;;;0.13;100.00;94705.28;5049442;28;20461;-77
2021/12/08 09:51:40;;;;;;;22.53;14.77;;;;;;;0.16;100.00;94705.00;5022805;28;20472;-77
2021/12/08 09:54:06;;;;;;;20.50;13.83;;;;;;;0.16;100.00;94689.50;5019212;28;20468;-76
2021/12/08 09:56:33;;;;;;;23.67;15.63;;;;;;;0.09;100.00;94689.22;5027350;28;21016;-77
2021/12/08 09:59:04;;;;;;;19.53;13.47;;;;;;;0.21;100.00;94692.53;5019835;28;20558;-77
2021/12/08 10:01:31;;;;;;;20.60;14.90;;;;;;;0.19;100.00;94692.63;5011324;28;20468;-77
2021/12/08 10:03:59;;;;;;;18.47;13.37;;;;;;;0.14;100.00;94691.41;5025809;28;20861;-76
2021/12/08 10:06:25;;;;;;;21.23;14.77;;;;;;;0.17;100.00;94683.41;5006878;28;20508;-77
2021/12/08 10:08:57;;;;;;;20.77;14.43;;;;;;;0.15;100.00;94675.75;5008879;28;20476;-77
2021/12/08 10:11:25;;;;;;;21.27;14.30;;;;;;;0.23;100.00;94678.50;5006364;28;21013;-77
2021/12/08 10:13:52;;;;;;;20.23;13.40;;;;;;;0.33;100.00;94675.09;5014840;28;20519;-77
2021/12/08 10:16:18;;;;;;;18.70;12.80;;;;;;;0.28;100.00;94688.44;5019839;28;20475;-77
2021/12/08 10:18:45;;;;;;;20.17;13.17;;;;;;;0.33;100.00;94680.28;5004528;28;20456;-77
2021/12/08 10:21:13;;;;;;;18.00;13.43;;;;;;;0.26;100.00;94676.59;5032461;28;20621;-77
2021/12/08 10:23:43;;;;;;;19.77;12.90;;;;;;;0.23;100.00;94670.75;5014234;28;20483;-77
2021/12/08 10:26:15;;;;;;;17.13;12.50;;;;;;;0.17;100.00;94671.28;5026401;28;20468;-77
2021/12/08 10:28:46;;;;;;;19.33;11.97;;;;;;;0.22;100.00;94674.28;5019646;28;21020;-78
2021/12/08 10:31:13;;;;;;;19.73;13.67;;;;;;;0.28;100.00;94672.13;5020568;28;20464;-75
2021/12/08 10:36:56;;;;;;;21.90;13.07;;;;;;;0.30;100.00;94675.38;5029001;28;21314;-77
2021/12/08 10:39:38;;;;;;;18.27;13.57;;;;;;;0.30;100.00;94677.94;5027773;28;20460;-77
2021/12/08 10:42:17;;;;;;;22.83;15.77;;;;;;;0.33;100.00;94677.69;5032642;28;20475;-75
2021/12/08 10:44:55;;;;;;;18.53;12.87;;;;;;;0.32;100.00;94674.28;5023829;28;20467;-77
2021/12/08 10:47:24;;;;;;;20.23;14.63;;;;;;;0.35;100.00;94673.22;5020874;28;20494;-77
2021/12/08 10:55:14;;;;;;;21.37;13.87;;;;;;;0.46;100.00;94666.13;5029489;28;21005;-77
2021/12/08 10:57:40;;;;;;;17.00;12.57;;;;;;;0.43;100.00;94657.81;5034237;28;20518;-77
2021/12/08 11:00:37;;;;;;;21.13;12.27;;;;;;;0.47;100.00;94651.44;5035199;28;20833;-75
2021/12/08 11:03:12;;;;;;;18.27;12.77;;;;;;;0.38;100.00;94647.88;5017087;28;20042;-77
2021/12/08 11:06:04;;;;;;;38.53;25.10;;;;;;;1.02;100.00;94636.09;5024426;28;21038;-77
2021/12/08 11:08:31;;;;;;;22.03;14.03;;;;;;;0.65;100.00;94639.44;5014508;28;20468;-77
2021/12/08 11:11:02;;;;;;;19.90;13.77;;;;;;;0.66;100.00;94627.31;5030258;28;20498;-77
2021/12/08 11:13:33;;;;;;;17.00;12.10;;;;;;;0.57;100.00;94635.88;5022984;28;20464;-77
2021/12/08 11:16:03;;;;;;;19.43;13.57;;;;;;;0.52;100.00;94625.16;5036581;28;20507;-76
2021/12/08 11:18:30;;;;;;;18.30;13.03;;;;;;;0.49;100.00;94623.66;5023170;28;21239;-77
2021/12/08 11:21:03;;;;;;;20.20;14.30;;;;;;;0.42;100.00;94620.78;5058170;28;20455;-77
2021/12/08 11:23:45;;;;;;;27.15;17.58;;;;;;;0.42;100.00;94622.56;5041342;28;20569;-77
2021/12/08 11:26:16;;;;;;;24.83;17.30;;;;;;;0.45;100.00;94622.31;5033522;28;20418;-77
2021/12/08 11:28:43;;;;;;;32.70;20.37;;;;;;;0.52;100.00;94613.03;5023379;28;20579;-77
2021/12/08 11:31:15;;;;;;;33.73;21.40;;;;;;;0.51;100.00;94613.19;5013485;28;20555;-77
2021/12/08 11:33:48;;;;;;;30.63;19.67;;;;;;;0.54;100.00;94616.31;5031806;28;20464;-77
2021/12/08 11:36:19;;;;;;;24.27;17.13;;;;;;;0.60;100.00;94620.91;5030845;28;20479;-78
2021/12/08 11:38:48;;;;;;;22.73;16.43;;;;;;;0.65;100.00;94626.50;5030229;28;20042;-77
2021/12/08 11:41:35;;;;;;;23.83;17.07;;;;;;;0.69;100.00;94625.25;5025517;28;20505;-78
2021/12/08 11:44:12;;;;;;;22.93;15.23;;;;;;;0.79;100.00;94608.91;5037169;28;20512;-77
2021/12/08 11:46:45;;;;;;;23.47;15.90;;;;;;;0.82;100.00;94603.47;5025507;28;20479;-78
2021/12/08 11:49:11;;;;;;;23.52;17.52;;;;;;;0.88;100.00;94595.16;5029671;28;20467;-77
2021/12/08 11:51:43;;;;;;;22.67;16.63;;;;;;;0.84;100.00;94597.19;5042916;28;20142;-78
2021/12/08 11:54:44;;;;;;;28.50;17.53;;;;;;;0.96;100.00;94592.66;5023459;28;20522;-78
2021/12/08 11:57:25;;;;;;;22.00;16.20;;;;;;;1.01;100.00;94589.66;5009998;28;20050;-78
2021/12/08 12:00:21;;;;;;;28.80;18.73;;;;;;;1.03;100.00;94595.50;5016484;28;20467;-78
2021/12/08 12:02:56;;;;;;;24.47;17.27;;;;;;;1.06;100.00;94595.22;5031910;28;20480;-77
2021/12/08 12:05:46;;;;;;;24.47;17.10;;;;;;;1.06;100.00;94588.25;5024834;28;20518;-77
2021/12/08 12:08:16;;;;;;;24.70;15.90;;;;;;;1.08;100.00;94590.72;5002368;28;20552;-78
2021/12/08 12:10:45;;;;;;;22.70;14.97;;;;;;;1.01;100.00;94590.47;5036183;28;20475;-78
2021/12/08 12:13:12;;;;;;;22.70;15.27;;;;;;;1.14;100.00;94596.16;5013167;28;20026;-76
2021/12/08 12:15:44;;;;;;;22.50;15.63;;;;;;;1.01;100.00;94597.44;5019455;28;20567;-77
2021/12/08 12:18:10;;;;;;;21.97;14.20;;;;;;;0.87;100.00;94590.91;5043582;28;20513;-78
2021/12/08 12:20:39;;;;;;;19.40;13.83;;;;;;;0.87;100.00;94602.09;5019388;28;20701;-79
2021/12/08 12:23:27;;;;;;;21.93;15.53;;;;;;;0.89;100.00;94594.19;5023125;28;21039;-77
2021/12/08 12:26:03;;;;;;;23.03;15.77;;;;;;;0.91;100.00;94597.44;5041049;28;20475;-77
2021/12/08 12:28:54;;;;;;;23.93;17.40;;;;;;;0.86;100.00;94584.91;5044881;28;20055;-77
2021/12/08 12:31:44;;;;;;;21.00;15.43;;;;;;;0.92;100.00;94588.72;5008154;28;20468;-78